sensor_id;sensor_type;location;lat;lon;timestamp;P1;durP1;ratioP1;P2;durP2;ratioP2
9508;SDS011;4792;50.088;8.122;2022-07-01T00:01:44;1.33;;;1.23;;
9508;SDS011;4792;50.088;8.122;2022-07-01T00:04:13;1.67;;;1.53;;
9508;SDS011;4792;50.088;8.122;2022-07-01T00:06:42;1.00;;;1.00;;
9508;SDS011;4792;50.088;8.122;2022-07-01T00:09:10;2.40;;;1.40;;
9508;SDS011;4792;50.088;8.122;2022-07-01T00:11:38;1.53;;;1.43;;
9508;SDS011;4792;50.088;8.122;2022-07-01T00:14:06;1.10;;;1.00;;
9508;SDS011;4792;50.088;8.122;2022-07-01T00:16:36;0.80;;;0.80;;
9508;SDS011;4792;50.088;8.122;2022-07-01T00:19:04;0.50;;;0.50;;
9508;SDS011;4792;50.088;8.122;2022-07-01T00:21:33;0.97;;;0.97;;
9508;SDS011;4792;50.088;8.122;2022-07-01T00:24:02;0.50;;;0.50;;
9508;SDS011;4792;50.088;8.122;2022-07-01T00:26:30;0.40;;;0.40;;
9508;SDS011;4792;50.088;8.122;2022-07-01T00:28:58;0.40;;;0.40;;
9508;SDS011;4792;50.088;8.122;2022-07-01T00:31:27;0.40;;;0.40;;
9508;SDS011;4792;50.088;8.122;2022-07-01T00:33:56;0.30;;;0.30;;
9508;SDS011;4792;50.088;8.122;2022-07-01T00:36:24;0.40;;;0.40;;
9508;SDS011;4792;50.088;8.122;2022-07-01T00:38:56;0.50;;;0.50;;
9508;SDS011;4792;50.088;8.122;2022-07-01T00:41:25;0.53;;;0.50;;
9508;SDS011;4792;50.088;8.122;2022-07-01T00:43:53;0.40;;;0.40;;
9508;SDS011;4792;50.088;8.122;2022-07-01T00:46:23;0.50;;;0.50;;
9508;SDS011;4792;50.088;8.122;2022-07-01T00:48:53;0.60;;;0.60;;
9508;SDS011;4792;50.088;8.122;2022-07-01T00:51:24;0.40;;;0.40;;
9508;SDS011;4792;50.088;8.122;2022-07-01T00:53:53;0.33;;;0.30;;
9508;SDS011;4792;50.088;8.122;2022-07-01T00:56:24;0.40;;;0.40;;
9508;SDS011;4792;50.088;8.122;2022-07-01T00:58:53;0.40;;;0.40;;
9508;SDS011;4792;50.088;8.122;2022-07-01T01:01:23;0.40;;;0.40;;
9508;SDS011;4792;50.088;8.122;2022-07-01T01:03:51;0.40;;;0.40;;
9508;SDS011;4792;50.088;8.122;2022-07-01T01:06:19;0.33;;;0.33;;
9508;SDS011;4792;50.088;8.122;2022-07-01T01:08:49;0.20;;;0.20;;
9508;SDS011;4792;50.088;8.122;2022-07-01T01:11:17;0.40;;;0.40;;
9508;SDS011;4792;50.088;8.122;2022-07-01T01:13:45;0.30;;;0.30;;
9508;SDS011;4792;50.088;8.122;2022-07-01T01:16:17;0.30;;;0.30;;
9508;SDS011;4792;50.088;8.122;2022-07-01T01:18:46;0.20;;;0.20;;
9508;SDS011;4792;50.088;8.122;2022-07-01T01:21:16;0.40;;;0.40;;
9508;SDS011;4792;50.088;8.122;2022-07-01T01:23:45;0.30;;;0.30;;
9508;SDS011;4792;50.088;8.122;2022-07-01T01:26:16;0.30;;;0.30;;
9508;SDS011;4792;50.088;8.122;2022-07-01T01:28:45;0.40;;;0.40;;
9508;SDS011;4792;50.088;8.122;2022-07-01T01:31:13;0.30;;;0.30;;
9508;SDS011;4792;50.088;8.122;2022-07-01T01:33:42;0.37;;;0.37;;
9508;SDS011;4792;50.088;8.122;2022-07-01T01:36:10;0.27;;;0.27;;
9508;SDS011;4792;50.088;8.122;2022-07-01T01:38:40;0.40;;;0.40;;
9508;SDS011;4792;50.088;8.122;2022-07-01T01:41:08;0.20;;;0.20;;
9508;SDS011;4792;50.088;8.122;2022-07-01T01:43:36;0.20;;;0.20;;
9508;SDS011;4792;50.088;8.122;2022-07-01T01:46:04;0.30;;;0.30;;
9508;SDS011;4792;50.088;8.122;2022-07-01T01:48:33;0.40;;;0.40;;
9508;SDS011;4792;50.088;8.122;2022-07-01T01:51:01;0.17;;;0.17;;
9508;SDS011;4792;50.088;8.122;2022-07-01T01:53:29;0.30;;;0.30;;
9508;SDS011;4792;50.088;8.122;2022-07-01T01:55:58;0.40;;;0.40;;
9508;SDS011;4792;50.088;8.122;2022-07-01T01:58:27;0.30;;;0.30;;
9508;SDS011;4792;50.088;8.122;2022-07-01T02:00:55;0.40;;;0.40;;
9508;SDS011;4792;50.088;8.122;2022-07-01T02:03:23;0.50;;;0.50;;
9508;SDS011;4792;50.088;8.122;2022-07-01T02:05:51;0.40;;;0.40;;
9508;SDS011;4792;50.088;8.122;2022-07-01T02:08:19;0.30;;;0.30;;
9508;SDS011;4792;50.088;8.122;2022-07-01T02:10:47;0.30;;;0.30;;
9508;SDS011;4792;50.088;8.122;2022-07-01T02:13:20;0.27;;;0.27;;
9508;SDS011;4792;50.088;8.122;2022-07-01T02:15:48;0.30;;;0.30;;
9508;SDS011;4792;50.088;8.122;2022-07-01T02:18:17;0.27;;;0.27;;
9508;SDS011;4792;50.088;8.122;2022-07-01T02:20:45;0.23;;;0.23;;
9508;SDS011;4792;50.088;8.122;2022-07-01T02:23:13;0.20;;;0.20;;
9508;SDS011;4792;50.088;8.122;2022-07-01T02:25:42;0.40;;;0.40;;
9508;SDS011;4792;50.088;8.122;2022-07-01T02:28:10;0.23;;;0.23;;
9508;SDS011;4792;50.088;8.122;2022-07-01T02:30:39;1.17;;;0.40;;
9508;SDS011;4792;50.088;8.122;2022-07-01T02:33:08;0.30;;;0.30;;
9508;SDS011;4792;50.088;8.122;2022-07-01T02:35:37;0.30;;;0.30;;
9508;SDS011;4792;50.088;8.122;2022-07-01T02:38:11;0.30;;;0.30;;
9508;SDS011;4792;50.088;8.122;2022-07-01T02:40:39;0.30;;;0.30;;
9508;SDS011;4792;50.088;8.122;2022-07-01T02:43:07;0.40;;;0.40;;
9508;SDS011;4792;50.088;8.122;2022-07-01T02:45:35;0.30;;;0.30;;
9508;SDS011;4792;50.088;8.122;2022-07-01T02:48:05;0.30;;;0.30;;
9508;SDS011;4792;50.088;8.122;2022-07-01T02:50:34;0.33;;;0.33;;
9508;SDS011;4792;50.088;8.122;2022-07-01T02:53:02;0.30;;;0.30;;
9508;SDS011;4792;50.088;8.122;2022-07-01T02:55:30;0.30;;;0.30;;
9508;SDS011;4792;50.088;8.122;2022-07-01T02:57:58;0.40;;;0.40;;
9508;SDS011;4792;50.088;8.122;2022-07-01T03:00:26;0.40;;;0.40;;
9508;SDS011;4792;50.088;8.122;2022-07-01T03:02:55;0.20;;;0.20;;
9508;SDS011;4792;50.088;8.122;2022-07-01T03:05:24;0.40;;;0.40;;
9508;SDS011;4792;50.088;8.122;2022-07-01T03:07:53;0.40;;;0.40;;
9508;SDS011;4792;50.088;8.122;2022-07-01T03:10:21;0.40;;;0.30;;
9508;SDS011;4792;50.088;8.122;2022-07-01T03:12:49;0.33;;;0.33;;
9508;SDS011;4792;50.088;8.122;2022-07-01T03:15:17;0.30;;;0.30;;
9508;SDS011;4792;50.088;8.122;2022-07-01T03:17:46;0.37;;;0.37;;
9508;SDS011;4792;50.088;8.122;2022-07-01T03:20:15;0.43;;;0.43;;
9508;SDS011;4792;50.088;8.122;2022-07-01T03:22:46;0.50;;;0.50;;
9508;SDS011;4792;50.088;8.122;2022-07-01T03:25:16;0.47;;;0.47;;
9508;SDS011;4792;50.088;8.122;2022-07-01T03:27:44;0.50;;;0.50;;
9508;SDS011;4792;50.088;8.122;2022-07-01T03:30:15;0.40;;;0.40;;
9508;SDS011;4792;50.088;8.122;2022-07-01T03:32:45;0.30;;;0.30;;
9508;SDS011;4792;50.088;8.122;2022-07-01T03:35:14;0.40;;;0.40;;
9508;SDS011;4792;50.088;8.122;2022-07-01T03:38:00;0.40;;;0.40;;
9508;SDS011;4792;50.088;8.122;2022-07-01T03:40:30;0.40;;;0.40;;
9508;SDS011;4792;50.088;8.122;2022-07-01T03:42:58;0.40;;;0.40;;
9508;SDS011;4792;50.088;8.122;2022-07-01T03:45:26;0.50;;;0.50;;
9508;SDS011;4792;50.088;8.122;2022-07-01T03:47:54;0.40;;;0.40;;
9508;SDS011;4792;50.088;8.122;2022-07-01T03:50:23;0.50;;;0.50;;
9508;SDS011;4792;50.088;8.122;2022-07-01T03:52:52;0.53;;;0.53;;
9508;SDS011;4792;50.088;8.122;2022-07-01T03:55:36;0.47;;;0.47;;
9508;SDS011;4792;50.088;8.122;2022-07-01T03:58:04;0.50;;;0.50;;
9508;SDS011;4792;50.088;8.122;2022-07-01T04:00:33;0.43;;;0.43;;
9508;SDS011;4792;50.088;8.122;2022-07-01T04:03:02;0.43;;;0.43;;
9508;SDS011;4792;50.088;8.122;2022-07-01T04:05:31;0.53;;;0.53;;
9508;SDS011;4792;50.088;8.122;2022-07-01T04:08:01;0.43;;;0.43;;
9508;SDS011;4792;50.088;8.122;2022-07-01T04:10:30;0.50;;;0.50;;
9508;SDS011;4792;50.088;8.122;2022-07-01T04:13:01;0.40;;;0.40;;
9508;SDS011;4792;50.088;8.122;2022-07-01T04:15:50;0.73;;;0.73;;
9508;SDS011;4792;50.088;8.122;2022-07-01T04:18:18;0.50;;;0.50;;
9508;SDS011;4792;50.088;8.122;2022-07-01T04:20:47;0.50;;;0.50;;
9508;SDS011;4792;50.088;8.122;2022-07-01T04:23:35;0.60;;;0.60;;
9508;SDS011;4792;50.088;8.122;2022-07-01T04:26:02;0.40;;;0.40;;
9508;SDS011;4792;50.088;8.122;2022-07-01T04:28:52;0.40;;;0.40;;
9508;SDS011;4792;50.088;8.122;2022-07-01T04:31:22;0.50;;;0.50;;
9508;SDS011;4792;50.088;8.122;2022-07-01T04:33:50;0.50;;;0.50;;
9508;SDS011;4792;50.088;8.122;2022-07-01T04:36:18;0.67;;;0.67;;
9508;SDS011;4792;50.088;8.122;2022-07-01T04:38:46;0.50;;;0.50;;
9508;SDS011;4792;50.088;8.122;2022-07-01T04:41:14;0.50;;;0.50;;
9508;SDS011;4792;50.088;8.122;2022-07-01T04:44:01;0.60;;;0.60;;
9508;SDS011;4792;50.088;8.122;2022-07-01T04:46:30;0.50;;;0.50;;
9508;SDS011;4792;50.088;8.122;2022-07-01T04:48:58;0.50;;;0.50;;
9508;SDS011;4792;50.088;8.122;2022-07-01T04:51:26;0.50;;;0.50;;
9508;SDS011;4792;50.088;8.122;2022-07-01T04:53:55;0.60;;;0.60;;
9508;SDS011;4792;50.088;8.122;2022-07-01T04:56:23;0.50;;;0.50;;
9508;SDS011;4792;50.088;8.122;2022-07-01T04:58:53;0.50;;;0.50;;
9508;SDS011;4792;50.088;8.122;2022-07-01T05:01:22;0.50;;;0.50;;
9508;SDS011;4792;50.088;8.122;2022-07-01T05:03:50;0.50;;;0.50;;
9508;SDS011;4792;50.088;8.122;2022-07-01T05:06:19;0.43;;;0.43;;
9508;SDS011;4792;50.088;8.122;2022-07-01T05:08:47;0.50;;;0.50;;
9508;SDS011;4792;50.088;8.122;2022-07-01T05:11:15;0.50;;;0.50;;
9508;SDS011;4792;50.088;8.122;2022-07-01T05:13:43;0.43;;;0.43;;
9508;SDS011;4792;50.088;8.122;2022-07-01T05:16:11;0.50;;;0.50;;
9508;SDS011;4792;50.088;8.122;2022-07-01T05:18:41;0.40;;;0.40;;
9508;SDS011;4792;50.088;8.122;2022-07-01T05:21:26;0.50;;;0.50;;
9508;SDS011;4792;50.088;8.122;2022-07-01T05:24:12;0.40;;;0.40;;
9508;SDS011;4792;50.088;8.122;2022-07-01T05:26:40;0.50;;;0.50;;
9508;SDS011;4792;50.088;8.122;2022-07-01T05:29:08;0.43;;;0.43;;
9508;SDS011;4792;50.088;8.122;2022-07-01T05:31:36;0.50;;;0.50;;
9508;SDS011;4792;50.088;8.122;2022-07-01T05:34:06;0.30;;;0.30;;
9508;SDS011;4792;50.088;8.122;2022-07-01T05:36:34;0.40;;;0.40;;
9508;SDS011;4792;50.088;8.122;2022-07-01T05:39:02;0.40;;;0.40;;
9508;SDS011;4792;50.088;8.122;2022-07-01T05:41:30;0.40;;;0.40;;
9508;SDS011;4792;50.088;8.122;2022-07-01T05:43:59;0.40;;;0.40;;
9508;SDS011;4792;50.088;8.122;2022-07-01T05:46:27;0.40;;;0.40;;
9508;SDS011;4792;50.088;8.122;2022-07-01T05:48:55;0.50;;;0.50;;
9508;SDS011;4792;50.088;8.122;2022-07-01T05:51:25;0.40;;;0.40;;
9508;SDS011;4792;50.088;8.122;2022-07-01T05:53:53;0.40;;;0.40;;
9508;SDS011;4792;50.088;8.122;2022-07-01T05:56:22;0.50;;;0.50;;
9508;SDS011;4792;50.088;8.122;2022-07-01T05:58:50;0.40;;;0.40;;
9508;SDS011;4792;50.088;8.122;2022-07-01T06:01:19;0.50;;;0.50;;
9508;SDS011;4792;50.088;8.122;2022-07-01T06:03:47;0.40;;;0.40;;
9508;SDS011;4792;50.088;8.122;2022-07-01T06:06:15;0.40;;;0.40;;
9508;SDS011;4792;50.088;8.122;2022-07-01T06:08:46;0.40;;;0.40;;
9508;SDS011;4792;50.088;8.122;2022-07-01T06:11:15;0.33;;;0.33;;
9508;SDS011;4792;50.088;8.122;2022-07-01T06:13:43;0.30;;;0.30;;
9508;SDS011;4792;50.088;8.122;2022-07-01T06:16:11;0.50;;;0.50;;
9508;SDS011;4792;50.088;8.122;2022-07-01T06:18:39;0.40;;;0.40;;
9508;SDS011;4792;50.088;8.122;2022-07-01T06:21:07;0.40;;;0.40;;
9508;SDS011;4792;50.088;8.122;2022-07-01T06:23:35;0.33;;;0.33;;
9508;SDS011;4792;50.088;8.122;2022-07-01T06:26:05;0.40;;;0.40;;
9508;SDS011;4792;50.088;8.122;2022-07-01T06:28:33;0.43;;;0.43;;
9508;SDS011;4792;50.088;8.122;2022-07-01T06:31:03;0.40;;;0.40;;
9508;SDS011;4792;50.088;8.122;2022-07-01T06:33:32;0.40;;;0.40;;
9508;SDS011;4792;50.088;8.122;2022-07-01T06:36:00;0.40;;;0.40;;
9508;SDS011;4792;50.088;8.122;2022-07-01T06:38:28;0.20;;;0.20;;
9508;SDS011;4792;50.088;8.122;2022-07-01T06:40:57;0.40;;;0.40;;
9508;SDS011;4792;50.088;8.122;2022-07-01T06:43:44;0.27;;;0.27;;
9508;SDS011;4792;50.088;8.122;2022-07-01T06:46:12;0.47;;;0.47;;
9508;SDS011;4792;50.088;8.122;2022-07-01T06:48:40;0.23;;;0.23;;
9508;SDS011;4792;50.088;8.122;2022-07-01T06:51:08;0.40;;;0.40;;
9508;SDS011;4792;50.088;8.122;2022-07-01T06:53:37;0.40;;;0.40;;
9508;SDS011;4792;50.088;8.122;2022-07-01T06:56:05;0.20;;;0.20;;
9508;SDS011;4792;50.088;8.122;2022-07-01T06:58:33;0.50;;;0.50;;
9508;SDS011;4792;50.088;8.122;2022-07-01T07:01:03;0.40;;;0.40;;
9508;SDS011;4792;50.088;8.122;2022-07-01T07:03:31;0.40;;;0.40;;
9508;SDS011;4792;50.088;8.122;2022-07-01T07:05:59;0.40;;;0.40;;
9508;SDS011;4792;50.088;8.122;2022-07-01T07:08:29;0.20;;;0.20;;
9508;SDS011;4792;50.088;8.122;2022-07-01T07:10:58;0.33;;;0.33;;
9508;SDS011;4792;50.088;8.122;2022-07-01T07:13:27;0.33;;;0.33;;
9508;SDS011;4792;50.088;8.122;2022-07-01T07:15:55;0.43;;;0.43;;
9508;SDS011;4792;50.088;8.122;2022-07-01T07:18:24;0.40;;;0.40;;
9508;SDS011;4792;50.088;8.122;2022-07-01T07:20:52;0.33;;;0.33;;
9508;SDS011;4792;50.088;8.122;2022-07-01T07:23:25;0.40;;;0.40;;
9508;SDS011;4792;50.088;8.122;2022-07-01T07:25:53;0.50;;;0.50;;
9508;SDS011;4792;50.088;8.122;2022-07-01T07:28:22;0.50;;;0.50;;
9508;SDS011;4792;50.088;8.122;2022-07-01T07:30:50;0.50;;;0.50;;
9508;SDS011;4792;50.088;8.122;2022-07-01T07:33:18;0.30;;;0.30;;
9508;SDS011;4792;50.088;8.122;2022-07-01T07:35:48;0.40;;;0.40;;
9508;SDS011;4792;50.088;8.122;2022-07-01T07:38:16;0.40;;;0.40;;
9508;SDS011;4792;50.088;8.122;2022-07-01T07:40:44;0.50;;;0.50;;
9508;SDS011;4792;50.088;8.122;2022-07-01T07:43:13;0.20;;;0.20;;
9508;SDS011;4792;50.088;8.122;2022-07-01T07:45:41;0.33;;;0.33;;
9508;SDS011;4792;50.088;8.122;2022-07-01T07:48:10;0.40;;;0.40;;
9508;SDS011;4792;50.088;8.122;2022-07-01T07:50:38;0.40;;;0.40;;
9508;SDS011;4792;50.088;8.122;2022-07-01T07:53:07;0.40;;;0.40;;
9508;SDS011;4792;50.088;8.122;2022-07-01T07:55:38;0.40;;;0.40;;
9508;SDS011;4792;50.088;8.122;2022-07-01T07:58:06;0.40;;;0.40;;
9508;SDS011;4792;50.088;8.122;2022-07-01T08:00:35;0.40;;;0.40;;
9508;SDS011;4792;50.088;8.122;2022-07-01T08:03:06;0.30;;;0.30;;
9508;SDS011;4792;50.088;8.122;2022-07-01T08:05:34;0.40;;;0.40;;
9508;SDS011;4792;50.088;8.122;2022-07-01T08:08:03;0.50;;;0.50;;
9508;SDS011;4792;50.088;8.122;2022-07-01T08:10:33;0.40;;;0.40;;
9508;SDS011;4792;50.088;8.122;2022-07-01T08:13:01;0.37;;;0.37;;
9508;SDS011;4792;50.088;8.122;2022-07-01T08:15:31;0.40;;;0.40;;
9508;SDS011;4792;50.088;8.122;2022-07-01T08:17:59;0.40;;;0.40;;
9508;SDS011;4792;50.088;8.122;2022-07-01T08:20:28;0.20;;;0.20;;
9508;SDS011;4792;50.088;8.122;2022-07-01T08:22:56;0.30;;;0.30;;
9508;SDS011;4792;50.088;8.122;2022-07-01T08:25:24;0.30;;;0.30;;
9508;SDS011;4792;50.088;8.122;2022-07-01T08:28:01;0.30;;;0.30;;
9508;SDS011;4792;50.088;8.122;2022-07-01T08:30:30;0.30;;;0.30;;
9508;SDS011;4792;50.088;8.122;2022-07-01T08:32:59;0.20;;;0.20;;
9508;SDS011;4792;50.088;8.122;2022-07-01T08:35:27;0.37;;;0.37;;
9508;SDS011;4792;50.088;8.122;2022-07-01T08:37:56;0.30;;;0.30;;
9508;SDS011;4792;50.088;8.122;2022-07-01T08:40:24;0.20;;;0.20;;
9508;SDS011;4792;50.088;8.122;2022-07-01T08:42:56;0.30;;;0.30;;
9508;SDS011;4792;50.088;8.122;2022-07-01T08:45:27;0.30;;;0.30;;
9508;SDS011;4792;50.088;8.122;2022-07-01T08:47:57;0.20;;;0.20;;
9508;SDS011;4792;50.088;8.122;2022-07-01T08:50:28;0.27;;;0.27;;
9508;SDS011;4792;50.088;8.122;2022-07-01T08:52:57;0.33;;;0.33;;
9508;SDS011;4792;50.088;8.122;2022-07-01T08:55:26;0.30;;;0.30;;
9508;SDS011;4792;50.088;8.122;2022-07-01T08:57:54;0.30;;;0.30;;
9508;SDS011;4792;50.088;8.122;2022-07-01T09:00:28;0.40;;;0.40;;
9508;SDS011;4792;50.088;8.122;2022-07-01T09:02:58;0.17;;;0.17;;
9508;SDS011;4792;50.088;8.122;2022-07-01T09:05:28;0.40;;;0.40;;
9508;SDS011;4792;50.088;8.122;2022-07-01T09:07:59;0.27;;;0.27;;
9508;SDS011;4792;50.088;8.122;2022-07-01T09:10:28;0.40;;;0.40;;
9508;SDS011;4792;50.088;8.122;2022-07-01T09:13:03;0.20;;;0.20;;
9508;SDS011;4792;50.088;8.122;2022-07-01T09:15:35;0.40;;;0.40;;
9508;SDS011;4792;50.088;8.122;2022-07-01T09:18:05;0.23;;;0.23;;
9508;SDS011;4792;50.088;8.122;2022-07-01T09:20:38;0.20;;;0.20;;
9508;SDS011;4792;50.088;8.122;2022-07-01T09:23:08;0.40;;;0.40;;
9508;SDS011;4792;50.088;8.122;2022-07-01T09:25:39;0.30;;;0.30;;
9508;SDS011;4792;50.088;8.122;2022-07-01T09:28:18;0.30;;;0.30;;
9508;SDS011;4792;50.088;8.122;2022-07-01T09:30:50;0.30;;;0.30;;
9508;SDS011;4792;50.088;8.122;2022-07-01T09:33:20;0.20;;;0.20;;
9508;SDS011;4792;50.088;8.122;2022-07-01T09:35:50;0.37;;;0.37;;
9508;SDS011;4792;50.088;8.122;2022-07-01T09:38:19;0.20;;;0.20;;
9508;SDS011;4792;50.088;8.122;2022-07-01T09:40:59;0.30;;;0.30;;
9508;SDS011;4792;50.088;8.122;2022-07-01T09:43:29;0.30;;;0.30;;
9508;SDS011;4792;50.088;8.122;2022-07-01T09:46:02;0.30;;;0.30;;
9508;SDS011;4792;50.088;8.122;2022-07-01T09:48:44;0.20;;;0.20;;
9508;SDS011;4792;50.088;8.122;2022-07-01T09:51:13;0.37;;;0.37;;
9508;SDS011;4792;50.088;8.122;2022-07-01T09:53:43;0.30;;;0.30;;
9508;SDS011;4792;50.088;8.122;2022-07-01T09:56:11;0.33;;;0.33;;
9508;SDS011;4792;50.088;8.122;2022-07-01T09:58:40;0.40;;;0.40;;
9508;SDS011;4792;50.088;8.122;2022-07-01T10:01:12;0.37;;;0.37;;
9508;SDS011;4792;50.088;8.122;2022-07-01T10:03:42;0.30;;;0.30;;
9508;SDS011;4792;50.088;8.122;2022-07-01T10:06:21;0.20;;;0.20;;
9508;SDS011;4792;50.088;8.122;2022-07-01T10:09:09;0.40;;;0.40;;
9508;SDS011;4792;50.088;8.122;2022-07-01T10:14:40;0.40;;;0.40;;
9508;SDS011;4792;50.088;8.122;2022-07-01T10:17:11;0.47;;;0.47;;
9508;SDS011;4792;50.088;8.122;2022-07-01T10:19:54;0.40;;;0.40;;
9508;SDS011;4792;50.088;8.122;2022-07-01T10:22:26;0.20;;;0.20;;
9508;SDS011;4792;50.088;8.122;2022-07-01T10:24:56;0.43;;;0.43;;
9508;SDS011;4792;50.088;8.122;2022-07-01T10:28:12;0.40;;;0.40;;
9508;SDS011;4792;50.088;8.122;2022-07-01T10:30:51;0.20;;;0.20;;
9508;SDS011;4792;50.088;8.122;2022-07-01T10:33:28;0.40;;;0.40;;
9508;SDS011;4792;50.088;8.122;2022-07-01T10:36:08;0.30;;;0.30;;
9508;SDS011;4792;50.088;8.122;2022-07-01T10:41:56;0.20;;;0.20;;
9508;SDS011;4792;50.088;8.122;2022-07-01T10:47:30;0.20;;;0.20;;
9508;SDS011;4792;50.088;8.122;2022-07-01T10:50:00;0.30;;;0.30;;
9508;SDS011;4792;50.088;8.122;2022-07-01T10:52:31;0.30;;;0.30;;
9508;SDS011;4792;50.088;8.122;2022-07-01T10:55:00;0.40;;;0.40;;
9508;SDS011;4792;50.088;8.122;2022-07-01T10:57:32;0.37;;;0.37;;
9508;SDS011;4792;50.088;8.122;2022-07-01T11:03:10;0.20;;;0.20;;
9508;SDS011;4792;50.088;8.122;2022-07-01T11:05:42;0.30;;;0.30;;
9508;SDS011;4792;50.088;8.122;2022-07-01T11:08:11;0.40;;;0.40;;
9508;SDS011;4792;50.088;8.122;2022-07-01T11:10:51;0.40;;;0.40;;
9508;SDS011;4792;50.088;8.122;2022-07-01T11:13:22;0.40;;;0.40;;
9508;SDS011;4792;50.088;8.122;2022-07-01T11:15:51;0.40;;;0.40;;
9508;SDS011;4792;50.088;8.122;2022-07-01T11:18:20;0.40;;;0.40;;
9508;SDS011;4792;50.088;8.122;2022-07-01T11:20:50;0.30;;;0.30;;
9508;SDS011;4792;50.088;8.122;2022-07-01T11:23:20;0.40;;;0.40;;
9508;SDS011;4792;50.088;8.122;2022-07-01T11:25:48;0.40;;;0.40;;
9508;SDS011;4792;50.088;8.122;2022-07-01T11:28:17;0.30;;;0.30;;
9508;SDS011;4792;50.088;8.122;2022-07-01T11:30:45;0.30;;;0.30;;
9508;SDS011;4792;50.088;8.122;2022-07-01T11:33:13;0.30;;;0.30;;
9508;SDS011;4792;50.088;8.122;2022-07-01T11:35:41;0.30;;;0.30;;
9508;SDS011;4792;50.088;8.122;2022-07-01T11:38:29;0.30;;;0.30;;
9508;SDS011;4792;50.088;8.122;2022-07-01T11:41:20;0.30;;;0.30;;
9508;SDS011;4792;50.088;8.122;2022-07-01T11:43:51;0.30;;;0.30;;
9508;SDS011;4792;50.088;8.122;2022-07-01T11:46:20;0.40;;;0.40;;
9508;SDS011;4792;50.088;8.122;2022-07-01T11:48:51;0.30;;;0.30;;
9508;SDS011;4792;50.088;8.122;2022-07-01T11:51:21;0.30;;;0.30;;
9508;SDS011;4792;50.088;8.122;2022-07-01T11:53:52;0.30;;;0.30;;
9508;SDS011;4792;50.088;8.122;2022-07-01T11:56:27;0.30;;;0.30;;
9508;SDS011;4792;50.088;8.122;2022-07-01T11:58:56;0.27;;;0.27;;
9508;SDS011;4792;50.088;8.122;2022-07-01T12:01:25;0.30;;;0.30;;
9508;SDS011;4792;50.088;8.122;2022-07-01T12:03:56;0.30;;;0.30;;
9508;SDS011;4792;50.088;8.122;2022-07-01T12:06:26;0.33;;;0.33;;
9508;SDS011;4792;50.088;8.122;2022-07-01T12:08:56;0.30;;;0.30;;
9508;SDS011;4792;50.088;8.122;2022-07-01T12:11:25;0.40;;;0.40;;
9508;SDS011;4792;50.088;8.122;2022-07-01T12:13:54;0.20;;;0.20;;
9508;SDS011;4792;50.088;8.122;2022-07-01T12:16:24;0.20;;;0.20;;
9508;SDS011;4792;50.088;8.122;2022-07-01T12:18:56;0.40;;;0.40;;
9508;SDS011;4792;50.088;8.122;2022-07-01T12:21:26;0.40;;;0.40;;
9508;SDS011;4792;50.088;8.122;2022-07-01T12:24:07;0.40;;;0.40;;
9508;SDS011;4792;50.088;8.122;2022-07-01T12:26:48;0.33;;;0.33;;
9508;SDS011;4792;50.088;8.122;2022-07-01T12:29:18;0.30;;;0.30;;
9508;SDS011;4792;50.088;8.122;2022-07-01T12:31:58;0.40;;;0.40;;
9508;SDS011;4792;50.088;8.122;2022-07-01T12:37:14;0.40;;;0.40;;
9508;SDS011;4792;50.088;8.122;2022-07-01T12:39:46;0.20;;;0.20;;
9508;SDS011;4792;50.088;8.122;2022-07-01T12:42:20;0.20;;;0.20;;
9508;SDS011;4792;50.088;8.122;2022-07-01T12:44:49;0.37;;;0.37;;
9508;SDS011;4792;50.088;8.122;2022-07-01T12:47:18;0.30;;;0.30;;
9508;SDS011;4792;50.088;8.122;2022-07-01T12:49:47;0.30;;;0.30;;
9508;SDS011;4792;50.088;8.122;2022-07-01T12:52:25;0.30;;;0.30;;
9508;SDS011;4792;50.088;8.122;2022-07-01T12:54:56;0.20;;;0.20;;
9508;SDS011;4792;50.088;8.122;2022-07-01T12:57:28;0.30;;;0.30;;
9508;SDS011;4792;50.088;8.122;2022-07-01T13:00:04;0.30;;;0.30;;
9508;SDS011;4792;50.088;8.122;2022-07-01T13:02:33;0.37;;;0.37;;
9508;SDS011;4792;50.088;8.122;2022-07-01T13:05:01;0.40;;;0.40;;
9508;SDS011;4792;50.088;8.122;2022-07-01T13:07:30;0.30;;;0.30;;
9508;SDS011;4792;50.088;8.122;2022-07-01T13:09:59;0.30;;;0.30;;
9508;SDS011;4792;50.088;8.122;2022-07-01T13:12:27;0.20;;;0.20;;
9508;SDS011;4792;50.088;8.122;2022-07-01T13:14:56;0.30;;;0.30;;
9508;SDS011;4792;50.088;8.122;2022-07-01T13:17:24;0.30;;;0.30;;
9508;SDS011;4792;50.088;8.122;2022-07-01T13:19:52;0.40;;;0.40;;
9508;SDS011;4792;50.088;8.122;2022-07-01T13:22:21;0.30;;;0.30;;
9508;SDS011;4792;50.088;8.122;2022-07-01T13:24:50;0.30;;;0.30;;
9508;SDS011;4792;50.088;8.122;2022-07-01T13:27:19;0.20;;;0.20;;
9508;SDS011;4792;50.088;8.122;2022-07-01T13:29:49;0.30;;;0.30;;
9508;SDS011;4792;50.088;8.122;2022-07-01T13:32:17;0.30;;;0.30;;
9508;SDS011;4792;50.088;8.122;2022-07-01T13:34:45;0.40;;;0.40;;
9508;SDS011;4792;50.088;8.122;2022-07-01T13:37:14;0.20;;;0.20;;
9508;SDS011;4792;50.088;8.122;2022-07-01T13:39:42;0.30;;;0.30;;
9508;SDS011;4792;50.088;8.122;2022-07-01T13:42:10;0.30;;;0.30;;
9508;SDS011;4792;50.088;8.122;2022-07-01T13:44:40;0.30;;;0.30;;
9508;SDS011;4792;50.088;8.122;2022-07-01T13:47:08;0.30;;;0.30;;
9508;SDS011;4792;50.088;8.122;2022-07-01T13:49:39;0.27;;;0.27;;
9508;SDS011;4792;50.088;8.122;2022-07-01T13:52:08;0.30;;;0.30;;
9508;SDS011;4792;50.088;8.122;2022-07-01T13:54:37;0.20;;;0.20;;
9508;SDS011;4792;50.088;8.122;2022-07-01T13:57:05;0.20;;;0.20;;
9508;SDS011;4792;50.088;8.122;2022-07-01T13:59:33;0.20;;;0.20;;
9508;SDS011;4792;50.088;8.122;2022-07-01T14:02:08;0.30;;;0.30;;
9508;SDS011;4792;50.088;8.122;2022-07-01T14:04:37;0.40;;;0.40;;
9508;SDS011;4792;50.088;8.122;2022-07-01T14:07:05;0.30;;;0.30;;
9508;SDS011;4792;50.088;8.122;2022-07-01T14:09:33;0.40;;;0.40;;
9508;SDS011;4792;50.088;8.122;2022-07-01T14:12:03;0.30;;;0.30;;
9508;SDS011;4792;50.088;8.122;2022-07-01T14:14:39;0.30;;;0.30;;
9508;SDS011;4792;50.088;8.122;2022-07-01T14:17:07;0.30;;;0.30;;
9508;SDS011;4792;50.088;8.122;2022-07-01T14:19:36;0.23;;;0.23;;
9508;SDS011;4792;50.088;8.122;2022-07-01T14:22:05;0.40;;;0.40;;
9508;SDS011;4792;50.088;8.122;2022-07-01T14:24:34;0.33;;;0.33;;
9508;SDS011;4792;50.088;8.122;2022-07-01T14:27:03;0.30;;;0.30;;
9508;SDS011;4792;50.088;8.122;2022-07-01T14:29:32;0.30;;;0.30;;
9508;SDS011;4792;50.088;8.122;2022-07-01T14:32:00;0.30;;;0.30;;
9508;SDS011;4792;50.088;8.122;2022-07-01T14:34:30;0.20;;;0.20;;
9508;SDS011;4792;50.088;8.122;2022-07-01T14:36:58;0.20;;;0.20;;
9508;SDS011;4792;50.088;8.122;2022-07-01T14:39:28;0.30;;;0.30;;
9508;SDS011;4792;50.088;8.122;2022-07-01T14:41:56;0.30;;;0.30;;
9508;SDS011;4792;50.088;8.122;2022-07-01T14:44:24;0.30;;;0.30;;
9508;SDS011;4792;50.088;8.122;2022-07-01T14:46:52;0.30;;;0.30;;
9508;SDS011;4792;50.088;8.122;2022-07-01T14:49:20;0.40;;;0.40;;
9508;SDS011;4792;50.088;8.122;2022-07-01T14:51:51;0.30;;;0.30;;
9508;SDS011;4792;50.088;8.122;2022-07-01T14:54:19;0.30;;;0.30;;
9508;SDS011;4792;50.088;8.122;2022-07-01T14:56:47;0.40;;;0.40;;
9508;SDS011;4792;50.088;8.122;2022-07-01T14:59:15;0.33;;;0.33;;
9508;SDS011;4792;50.088;8.122;2022-07-01T15:01:44;0.30;;;0.30;;
9508;SDS011;4792;50.088;8.122;2022-07-01T15:04:12;0.30;;;0.30;;
9508;SDS011;4792;50.088;8.122;2022-07-01T15:06:40;0.30;;;0.30;;
9508;SDS011;4792;50.088;8.122;2022-07-01T15:09:09;0.30;;;0.30;;
9508;SDS011;4792;50.088;8.122;2022-07-01T15:11:38;0.30;;;0.30;;
9508;SDS011;4792;50.088;8.122;2022-07-01T15:14:06;0.30;;;0.30;;
9508;SDS011;4792;50.088;8.122;2022-07-01T15:16:34;0.33;;;0.33;;
9508;SDS011;4792;50.088;8.122;2022-07-01T15:19:02;0.20;;;0.20;;
9508;SDS011;4792;50.088;8.122;2022-07-01T15:21:30;0.30;;;0.30;;
9508;SDS011;4792;50.088;8.122;2022-07-01T15:23:59;0.37;;;0.37;;
9508;SDS011;4792;50.088;8.122;2022-07-01T15:26:29;0.30;;;0.30;;
9508;SDS011;4792;50.088;8.122;2022-07-01T15:28:57;0.50;;;0.50;;
9508;SDS011;4792;50.088;8.122;2022-07-01T15:31:26;0.30;;;0.30;;
9508;SDS011;4792;50.088;8.122;2022-07-01T15:34:15;0.30;;;0.30;;
9508;SDS011;4792;50.088;8.122;2022-07-01T15:36:44;0.30;;;0.30;;
9508;SDS011;4792;50.088;8.122;2022-07-01T15:39:12;0.20;;;0.20;;
9508;SDS011;4792;50.088;8.122;2022-07-01T15:41:43;0.30;;;0.30;;
9508;SDS011;4792;50.088;8.122;2022-07-01T15:44:12;0.37;;;0.37;;
9508;SDS011;4792;50.088;8.122;2022-07-01T15:46:41;0.20;;;0.20;;
9508;SDS011;4792;50.088;8.122;2022-07-01T15:49:09;0.40;;;0.40;;